地図

経路データ

SID SEASON NUMBER BASIN SUBBASIN NAME ISO_TIME NATURE LAT LON WMO_WIND WMO_PRES WMO_AGENCY TRACK_TYPE DIST2LAND LANDFALL IFLAG USA_AGENCY USA_ATCF_ID USA_LAT USA_LON USA_RECORD USA_STATUS USA_WIND USA_PRES USA_SSHS USA_R34_NE USA_R34_SE USA_R34_SW USA_R34_NW USA_R50_NE USA_R50_SE USA_R50_SW USA_R50_NW USA_R64_NE USA_R64_SE USA_R64_SW USA_R64_NW USA_POCI USA_ROCI USA_RMW USA_EYE TOKYO_LAT TOKYO_LON TOKYO_GRADE TOKYO_WIND TOKYO_PRES TOKYO_R50_DIR TOKYO_R50_LONG TOKYO_R50_SHORT TOKYO_R30_DIR TOKYO_R30_LONG TOKYO_R30_SHORT TOKYO_LAND CMA_LAT CMA_LON CMA_CAT CMA_WIND CMA_PRES HKO_LAT HKO_LON HKO_CAT HKO_WIND HKO_PRES NEWDELHI_LAT NEWDELHI_LON NEWDELHI_GRADE NEWDELHI_WIND NEWDELHI_PRES NEWDELHI_CI NEWDELHI_DP NEWDELHI_POCI REUNION_LAT REUNION_LON REUNION_TYPE REUNION_WIND REUNION_PRES REUNION_TNUM REUNION_CI REUNION_RMW REUNION_R34_NE REUNION_R34_SE REUNION_R34_SW REUNION_R34_NW REUNION_R50_NE REUNION_R50_SE REUNION_R50_SW REUNION_R50_NW REUNION_R64_NE REUNION_R64_SE REUNION_R64_SW REUNION_R64_NW BOM_LAT BOM_LON BOM_TYPE BOM_WIND BOM_PRES BOM_TNUM BOM_CI BOM_RMW BOM_R34_NE BOM_R34_SE BOM_R34_SW BOM_R34_NW BOM_R50_NE BOM_R50_SE BOM_R50_SW BOM_R50_NW BOM_R64_NE BOM_R64_SE BOM_R64_SW BOM_R64_NW BOM_ROCI BOM_POCI BOM_EYE BOM_POS_METHOD BOM_PRES_METHOD NADI_LAT NADI_LON NADI_CAT NADI_WIND NADI_PRES WELLINGTON_LAT WELLINGTON_LON WELLINGTON_WIND WELLINGTON_PRES DS824_LAT DS824_LON DS824_STAGE DS824_WIND DS824_PRES TD9636_LAT TD9636_LON TD9636_STAGE TD9636_WIND TD9636_PRES TD9635_LAT TD9635_LON TD9635_WIND TD9635_PRES TD9635_ROCI NEUMANN_LAT NEUMANN_LON NEUMANN_CLASS NEUMANN_WIND NEUMANN_PRES MLC_LAT MLC_LON MLC_CLASS MLC_WIND MLC_PRES USA_GUST BOM_GUST BOM_GUST_PER REUNION_GUST REUNION_GUST_PER USA_SEAHGT USA_SEARAD_NE USA_SEARAD_SE USA_SEARAD_SW USA_SEARAD_NW STORM_SPEED STORM_DIR
1885290N33330 1885 49 NA NA NOT_NAMED 1885-10-16 12:00:00 ET 33.0000 -30.5000 main 1408 1408 _____________O -1 33.0000 -30.5000 EX 30 1005 19 245
1885290N33330 1885 49 NA NA NOT_NAMED 1885-10-16 15:00:00 ET 32.6116 -31.5016 main 1484 1484 _____________P -1 32.6116 -31.5016 EX 30 19 245
1885290N33330 1885 49 NA NA NOT_NAMED 1885-10-16 18:00:00 ET 32.2000 -32.5000 main 1565 1565 _____________O -1 32.2000 -32.5000 EX 30 19 243
1885290N33330 1885 49 NA NA NOT_NAMED 1885-10-16 21:00:00 ET 31.7567 -33.4993 main 1650 1650 _____________P -1 31.7567 -33.4993 EX 32 19 242
1885290N33330 1885 49 NA NA NOT_NAMED 1885-10-17 00:00:00 ET 31.3000 -34.5000 main 1736 1736 _____________O -1 31.3000 -34.5000 EX 35 19 242
1885290N33330 1885 49 NA NA NOT_NAMED 1885-10-17 03:00:00 ET 30.8492 -35.4991 main 1825 1825 _____________P -1 30.8492 -35.4991 EX 35 19 242
1885290N33330 1885 49 NA NA NOT_NAMED 1885-10-17 06:00:00 ET 30.4000 -36.5000 main 1918 1918 _____________O -1 30.4000 -36.5000 EX 35 22 244
1885290N33330 1885 49 NA NA NOT_NAMED 1885-10-17 09:00:00 ET 29.8765 -37.7644 main 2042 2042 _____________P -1 29.8765 -37.7644 EX 37 20 243
1885290N33330 1885 49 NA NA NOT_NAMED 1885-10-17 12:00:00 ET 29.5000 -38.5000 main 2110 2072 _____________O -1 29.5000 -38.5000 EX 40 1003 5 208
1885290N33330 1885 49 NA NA NOT_NAMED 1885-10-17 15:00:00 ET 29.4678 -38.0115 main 2062 1975 _____________P -1 29.4678 -38.0115 EX 40 13 86
1885290N33330 1885 49 NA NA NOT_NAMED 1885-10-17 18:00:00 ET 29.6000 -37.0000 main 1965 1898 _____________O -1 29.6000 -37.0000 EX 40 15 81
1885290N33330 1885 49 NA NA NOT_NAMED 1885-10-17 21:00:00 ET 29.6984 -36.3100 main 1898 1830 _____________P -1 29.6984 -36.3100 EX 40 13 81
1885290N33330 1885 49 NA NA NOT_NAMED 1885-10-18 00:00:00 ET 29.8000 -35.5000 main 1821 1725 _____________O -1 29.8000 -35.5000 EX 40 17 84
1885290N33330 1885 49 NA NA NOT_NAMED 1885-10-18 03:00:00 ET 29.8581 -34.4022 main 1715 1609 _____________P -1 29.8581 -34.4022 EX 40 20 87
1885290N33330 1885 49 NA NA NOT_NAMED 1885-10-18 06:00:00 ET 29.9000 -33.2000 main 1599 1475 _____________O -1 29.9000 -33.2000 EX 40 22 86
1885290N33330 1885 49 NA NA NOT_NAMED 1885-10-18 09:00:00 ET 30.0267 -31.8603 main 1475 1389 _____________P -1 30.0267 -31.8603 EX 40 19 87
1885290N33330 1885 49 NA NA NOT_NAMED 1885-10-18 12:00:00 TS 30.0000 -31.0000 main 1389 1387 _____________O -1 30.0000 -31.0000 TS 40 1005 7 131
1885290N33330 1885 49 NA NA NOT_NAMED 1885-10-18 15:00:00 TS 29.5418 -31.2200 main 1405 1405 _____________P -1 29.5418 -31.2200 TS 40 12 221
1885290N33330 1885 49 NA NA NOT_NAMED 1885-10-18 18:00:00 TS 29.1000 -31.9000 main 1472 1472 _____________O -1 29.1000 -31.9000 TS 40 11 249
1885290N33330 1885 49 NA NA NOT_NAMED 1885-10-18 21:00:00 TS 29.1624 -32.3559 main 1521 1521 _____________P -1 29.1624 -32.3559 TS 40 8 284
1885290N33330 1885 49 NA NA NOT_NAMED 1885-10-19 00:00:00 TS 29.3000 -32.8000 main 1559 1559 _____________O -1 29.3000 -32.8000 TS 40 7 269
1885290N33330 1885 49 NA NA NOT_NAMED 1885-10-19 03:00:00 TS 29.1447 -33.2003 main 1598 1598 _____________P -1 29.1447 -33.2003 TS 40 8 240
1885290N33330 1885 49 NA NA NOT_NAMED 1885-10-19 06:00:00 TS 28.9000 -33.6000 main 1638 1638 _____________O -1 28.9000 -33.6000 TS 40 9 238
1885290N33330 1885 49 NA NA NOT_NAMED 1885-10-19 09:00:00 TS 28.6627 -34.0729 main 1687 1687 _____________P -1 28.6627 -34.0729 TS 40 9 243
1885290N33330 1885 49 NA NA NOT_NAMED 1885-10-19 12:00:00 TS 28.5000 -34.5000 main 1727 1727 _____________O -1 28.5000 -34.5000 TS 40 1005 6 256
1885290N33330 1885 49 NA NA NOT_NAMED 1885-10-19 15:00:00 TS 28.5122 -34.7796 main 1757 1757 _____________P -1 28.5122 -34.7796 TS 40 5 283
1885290N33330 1885 49 NA NA NOT_NAMED 1885-10-19 18:00:00 TS 28.6000 -35.0000 main 1775 1775 _____________O -1 28.6000 -35.0000 TS 40 4 289
1885290N33330 1885 49 NA NA NOT_NAMED 1885-10-19 21:00:00 TS 28.6575 -35.2500 main 1794 1794 _____________P -1 28.6575 -35.2500 TS 40 4 283
1885290N33330 1885 49 NA NA NOT_NAMED 1885-10-20 00:00:00 TS 28.7000 -35.5000 main 1823 1823 _____________O -1 28.7000 -35.5000 TS 40 4 276
1885290N33330 1885 49 NA NA NOT_NAMED 1885-10-20 03:00:00 TS 28.7000 -35.7501 main 1853 1853 _____________P -1 28.7000 -35.7501 TS 40 4 270
1885290N33330 1885 49 NA NA NOT_NAMED 1885-10-20 06:00:00 TS 28.7000 -36.0000 main 1872 1872 _____________O -1 28.7000 -36.0000 TS 40 5 276
1885290N33330 1885 49 NA NA NOT_NAMED 1885-10-20 09:00:00 TS 28.7501 -36.2874 main 1901 1901 _____________P -1 28.7501 -36.2874 TS 40 4 283
1885290N33330 1885 49 NA NA NOT_NAMED 1885-10-20 12:00:00 TS 28.8000 -36.5000 main 1920 1920 _____________O -1 28.8000 -36.5000 TS 40 1005 2 285
1885290N33330 1885 49 NA NA NOT_NAMED 1885-10-20 15:00:00 TS 28.8074 -36.5375 main 1920 1920 _____________P -1 28.8074 -36.5375 TS 37 0 0
1885290N33330 1885 49 NA NA NOT_NAMED 1885-10-20 18:00:00 TS 28.8000 -36.5000 main 1920 1920 _____________O -1 28.8000 -36.5000 TS 35 0 101
1885290N33330 1885 49 NA NA NOT_NAMED 1885-10-20 21:00:00 TS 28.8000 -36.5000 main 1920 1920 _____________P -1 28.8000 -36.5000 TS 32 0 0
1885290N33330 1885 49 NA NA NOT_NAMED 1885-10-21 00:00:00 TS 28.8000 -36.5000 main 1920 1920 _____________O -1 28.8000 -36.5000 TD 30 0 0
1885290N33330 1885 49 NA NA NOT_NAMED 1885-10-21 03:00:00 TS 28.8000 -36.5000 main 1920 1920 _____________P -1 28.8000 -36.5000 TD 30 0 0
1885290N33330 1885 49 NA NA NOT_NAMED 1885-10-21 06:00:00 TS 28.8000 -36.5000 main 1920 1920 _____________O -1 28.8000 -36.5000 TD 30 0 0
1885290N33330 1885 49 NA NA NOT_NAMED 1885-10-21 09:00:00 TS 28.7850 -36.5150 main 1920 1920 _____________P -1 28.7850 -36.5150 TD 30 0 0
1885290N33330 1885 49 NA NA NOT_NAMED 1885-10-21 12:00:00 TS 28.8000 -36.5000 main 1920 1910 _____________O -1 28.8000 -36.5000 TD 30 1 37
1885290N33330 1885 49 NA NA NOT_NAMED 1885-10-21 15:00:00 TS 28.8850 -36.4225 main 1910 1899 _____________P -1 28.8850 -36.4225 TD 30 3 42
1885290N33330 1885 49 NA NA NOT_NAMED 1885-10-21 18:00:00 TS 29.0000 -36.3000 main 1899 1889 _____________O -1 29.0000 -36.3000 TD 30 3 48
1885290N33330 1885 49 NA NA NOT_NAMED 1885-10-21 21:00:00 TS 29.1000 -36.1500 main 1889 1870 _____________P -1 29.1000 -36.1500 TD 30 3 53
1885290N33330 1885 49 NA NA NOT_NAMED 1885-10-22 00:00:00 TS 29.2000 -36.0000 main 1870 1860 _____________O -1 29.2000 -36.0000 TD 30 3 46
1885290N33330 1885 49 NA NA NOT_NAMED 1885-10-22 03:00:00 TS 29.3075 -35.9000 main 1860 1850 _____________P -1 29.3075 -35.9000 TD 30 3 41
1885290N33330 1885 49 NA NA NOT_NAMED 1885-10-22 06:00:00 TS 29.4000 -35.8000 main 1850 1840 _____________O -1 29.4000 -35.8000 TD 30 3 50
1885290N33330 1885 49 NA NA NOT_NAMED 1885-10-22 09:00:00 TS 29.4800 -35.6651 main 1840 1821 _____________P -1 29.4800 -35.6651 TD 30 3 69
1885290N33330 1885 49 NA NA NOT_NAMED 1885-10-22 12:00:00 TS 29.5000 -35.5000 main 1821 1801 _____________O -1 29.5000 -35.5000 TD 30 3 102
1885290N33330 1885 49 NA NA NOT_NAMED 1885-10-22 15:00:00 TS 29.4150 -35.3074 main 1801 1782 _____________P -1 29.4150 -35.3074 TD 30 4 120
1885290N33330 1885 49 NA NA NOT_NAMED 1885-10-22 18:00:00 TS 29.3000 -35.1000 main 1782 1763 _____________O -1 29.3000 -35.1000 TD 30 4 116
1885290N33330 1885 49 NA NA NOT_NAMED 1885-10-22 21:00:00 TS 29.2425 -34.9001 main 1763 1744 _____________P -1 29.2425 -34.9001 TD 30 4 106
1885290N33330 1885 49 NA NA NOT_NAMED 1885-10-23 00:00:00 TS 29.2000 -34.7000 main 1744 1724 _____________O -1 29.2000 -34.7000 TD 30 4 105
1885290N33330 1885 49 NA NA NOT_NAMED 1885-10-23 03:00:00 TS 29.1500 -34.4925 main 1724 1705 _____________P -1 29.1500 -34.4925 TD 30 4 106
1885290N33330 1885 49 NA NA NOT_NAMED 1885-10-23 06:00:00 TS 29.1000 -34.3000 main 1705 1686 _____________O -1 29.1000 -34.3000 TD 30 4 111
1885290N33330 1885 49 NA NA NOT_NAMED 1885-10-23 09:00:00 TS 29.0125 -34.0826 main 1686 1676 _____________P -1 29.0125 -34.0826 TD 30 3 111
1885290N33330 1885 49 NA NA NOT_NAMED 1885-10-23 12:00:00 TS 29.0000 -34.0000 main 1676 1676 _____________O -1 29.0000 -34.0000 TD 30 1009 2 328
1885290N33330 1885 49 NA NA NOT_NAMED 1885-10-23 15:00:00 TS 29.1626 -34.1898 main 1695 1695 _____________P -1 29.1626 -34.1898 TD 30 6 312
1885290N33330 1885 49 NA NA NOT_NAMED 1885-10-23 18:00:00 TS 29.4000 -34.5000 main 1724 1724 _____________O -1 29.4000 -34.5000 TD 30 7 312
1885290N33330 1885 49 NA NA NOT_NAMED 1885-10-23 21:00:00 TS 29.6000 -34.7501 main 1753 1753 _____________P -1 29.6000 -34.7501 TD 30 6 313
1885290N33330 1885 49 NA NA NOT_NAMED 1885-10-24 00:00:00 TS 29.8000 -35.0000 main 1772 1772 _____________O -1 29.8000 -35.0000 TD 30 6 313
1885290N33330 1885 49 NA NA NOT_NAMED 1885-10-24 03:00:00 TS 30.0075 -35.2500 main 1802 1802 _____________P -1 30.0075 -35.2500 TD 30 6 313
1885290N33330 1885 49 NA NA NOT_NAMED 1885-10-24 06:00:00 TS 30.2000 -35.5000 main 1822 1822 _____________O -1 30.2000 -35.5000 TD 30 6 310
1885290N33330 1885 49 NA NA NOT_NAMED 1885-10-24 09:00:00 TS 30.4026 -35.8024 main 1851 1851 _____________P -1 30.4026 -35.8024 TD 30 5 305
1885290N33330 1885 49 NA NA NOT_NAMED 1885-10-24 12:00:00 TS 30.5000 -36.0000 main 1871 1870 _____________O -1 30.5000 -36.0000 TD 30 1 270
1885290N33330 1885 49 NA NA NOT_NAMED 1885-10-24 15:00:00 TS 30.4025 -35.9450 main 1861 1850 _____________P -1 30.4025 -35.9450 TD 30 3 150
1885290N33330 1885 49 NA NA NOT_NAMED 1885-10-24 18:00:00 TS 30.2000 -35.8000 main 1850 1840 _____________O -1 30.2000 -35.8000 TD 30 4 156
1885290N33330 1885 49 NA NA NOT_NAMED 1885-10-24 21:00:00 TS 30.0075 -35.7425 main 1840 1840 _____________P -1 30.0075 -35.7425 TD 30 4 168
1885290N33330 1885 49 NA NA NOT_NAMED 1885-10-25 00:00:00 TS 29.8000 -35.7000 main 1840 1840 _____________O -1 29.8000 -35.7000 TD 30 4 169
1885290N33330 1885 49 NA NA NOT_NAMED 1885-10-25 03:00:00 TS 29.6000 -35.6500 main 1840 1830 _____________P -1 29.6000 -35.6500 TD 30 4 168
1885290N33330 1885 49 NA NA NOT_NAMED 1885-10-25 06:00:00 TS 29.4000 -35.6000 main 1830 1821 _____________O -1 29.4000 -35.6000 TD 30 4 163
1885290N33330 1885 49 NA NA NOT_NAMED 1885-10-25 09:00:00 TS 29.1849 -35.5048 main 1821 1821 _____________P -1 29.1849 -35.5048 TD 30 4 168
1885290N33330 1885 49 NA NA NOT_NAMED 1885-10-25 12:00:00 TS 29.0000 -35.5000 main 1822 1822 _____________O -1 29.0000 -35.5000 TD 30 4 210
1885290N33330 1885 49 NA NA NOT_NAMED 1885-10-25 15:00:00 TS 28.8776 -35.7051 main 1842 1842 _____________P -1 28.8776 -35.7051 TD 30 5 245
1885290N33330 1885 49 NA NA NOT_NAMED 1885-10-25 18:00:00 TS 28.8000 -36.0000 main 1871 1871 _____________O -1 28.8000 -36.0000 TD 30 5 254
1885290N33330 1885 49 NA NA NOT_NAMED 1885-10-25 21:00:00 TS 28.7425 -36.2499 main 1891 1891 _____________P -1 28.7425 -36.2499 TD 32 4 257
1885290N33330 1885 49 NA NA NOT_NAMED 1885-10-26 00:00:00 TS 28.7000 -36.5000 main 1921 1921 _____________O -1 28.7000 -36.5000 TS 35 4 258
1885290N33330 1885 49 NA NA NOT_NAMED 1885-10-26 03:00:00 TS 28.6500 -36.7500 main 1941 1941 _____________P -1 28.6500 -36.7500 TS 35 4 257
1885290N33330 1885 49 NA NA NOT_NAMED 1885-10-26 06:00:00 TS 28.6000 -37.0000 main 1970 1970 _____________O -1 28.6000 -37.0000 TS 35 5 255
1885290N33330 1885 49 NA NA NOT_NAMED 1885-10-26 09:00:00 TS 28.5125 -37.3474 main 2000 2000 _____________P -1 28.5125 -37.3474 TS 35 5 257
1885290N33330 1885 49 NA NA NOT_NAMED 1885-10-26 12:00:00 TS 28.5000 -37.5000 main 2019 1989 _____________O -1 28.5000 -37.5000 TS 35 2 42
1885290N33330 1885 49 NA NA NOT_NAMED 1885-10-26 15:00:00 TS 28.6628 -37.1904 main 1989 1939 _____________P -1 28.6628 -37.1904 TS 32 8 60
1885290N33330 1885 49 NA NA NOT_NAMED 1885-10-26 18:00:00 TS 28.9000 -36.7000 main 1939 1909 _____________O -1 28.9000 -36.7000 TD 30 9 59
1885290N33330 1885 49 NA NA NOT_NAMED 1885-10-26 21:00:00 TS 29.1073 -36.3499 main 1899 1869 _____________P -1 29.1073 -36.3499 TD 30 7 57
1885290N33330 1885 49 NA NA NOT_NAMED 1885-10-27 00:00:00 TS 29.3000 -36.0000 main 1869 1830 _____________O -1 29.3000 -36.0000 TD 30 7 62
1885290N33330 1885 49 NA NA NOT_NAMED 1885-10-27 03:00:00 TS 29.4500 -35.5998 main 1830 1792 _____________P -1 29.4500 -35.5998 TD 27 8 67
1885290N33330 1885 49 NA NA NOT_NAMED 1885-10-27 06:00:00 TS 29.6000 -35.2000 main 1792 1763 _____________O -1 29.6000 -35.2000 TD 25 7 63
1885290N33330 1885 49 NA NA NOT_NAMED 1885-10-27 09:00:00 TS 29.7876 -34.8378 main 1753 1725 _____________P -1 29.7876 -34.8378 TD 25 7 57
1885290N33330 1885 49 NA NA NOT_NAMED 1885-10-27 12:00:00 TS 30.0000 -34.5000 main 1725 _____________O -1 30.0000 -34.5000 TD 25 7 54

IBTrACS Databaseについて

本データベースは、米国NOAAが公開する1842年以降の世界の熱帯低気圧のベストトラックデータアーカイブInternational Best Track Archive for Climate Stewardship (IBTrACS)を、ウェブで閲覧しやすい形式に変換したものです。

最終更新日:2021-11-26